Time;durP1;ratioP1;P1;durP2;ratioP2;P2;SDS_P1;SDS_P2;PMS_P1;PMS_P2;Temp;Humidity;BMP_temperature;BMP_pressure;BME280_temperature;BME280_humidity;BME280_pressure;Samples;Min_cycle;Max_cycle;Signal;HPM_P1;HPM_P2
2023/03/10 00:02:12;;;;;;;9.40;6.55;;;;;;;;;;5089681;28;20048;-73
2023/03/10 00:04:42;;;;;;;2.03;1.63;;;;;;;;;;5089389;28;20044;-77
2023/03/10 00:07:12;;;;;;;3.10;1.77;;;;;;;;;;5087325;28;20060;-74
2023/03/10 00:09:44;;;;;;;3.58;1.95;;;;;;;;;;5086168;28;20071;-73
2023/03/10 00:12:15;;;;;;;1.90;1.73;;;;;;;;;;5089010;28;20048;-75
2023/03/10 00:14:44;;;;;;;2.80;2.30;;;;;;;;;;5089252;28;20051;-73
2023/03/10 00:17:16;;;;;;;2.25;1.50;;;;;;;;;;5089163;28;20051;-73
2023/03/10 00:19:47;;;;;;;2.45;1.70;;;;;;;;;;5088990;28;20048;-75
2023/03/10 00:22:18;;;;;;;3.65;2.08;;;;;;;;;;5070880;28;20449;-75
2023/03/10 00:24:48;;;;;;;2.67;1.80;;;;;;;;;;5087722;28;20048;-73
2023/03/10 00:27:18;;;;;;;2.30;1.95;;;;;;;;;;5088103;28;20063;-73
2023/03/10 00:29:52;;;;;;;4.13;1.83;;;;;;;;;;5088014;28;20689;-74
2023/03/10 00:32:25;;;;;;;4.43;1.70;;;;;;;;;;5089393;28;20044;-76
2023/03/10 00:34:55;;;;;;;3.63;1.80;;;;;;;;;;5071129;28;20062;-73
2023/03/10 00:37:25;;;;;;;6.22;2.08;;;;;;;;;;5069752;28;20533;-74
2023/03/10 00:39:56;;;;;;;7.25;2.00;;;;;;;;;;5087297;28;20044;-73
2023/03/10 00:42:27;;;;;;;2.50;2.05;;;;;;;;;;5083885;28;20419;-74
2023/03/10 00:44:58;;;;;;;1.77;1.67;;;;;;;;;;5088870;28;20044;-73
2023/03/10 00:47:30;;;;;;;2.40;1.88;;;;;;;;;;5088474;28;20055;-73
2023/03/10 00:49:59;;;;;;;5.35;2.10;;;;;;;;;;5069080;28;20048;-75
2023/03/10 00:52:34;;;;;;;3.05;2.17;;;;;;;;;;5069676;28;20056;-74
2023/03/10 00:55:05;;;;;;;5.15;2.17;;;;;;;;;;5089209;28;20040;-74
2023/03/10 00:57:37;;;;;;;7.90;2.55;;;;;;;;;;5070121;28;20406;-73
2023/03/10 01:00:10;;;;;;;6.65;2.50;;;;;;;;;;5069880;28;20518;-76
2023/03/10 01:02:41;;;;;;;5.53;2.85;;;;;;;;;;5088531;28;20048;-74
2023/03/10 01:05:11;;;;;;;5.15;3.05;;;;;;;;;;5068724;28;20063;-74
2023/03/10 01:07:43;;;;;;;8.02;3.10;;;;;;;;;;5085005;28;20056;-73
2023/03/10 01:10:14;;;;;;;5.20;3.45;;;;;;;;;;5066833;28;20430;-73
2023/03/10 01:12:45;;;;;;;7.13;3.25;;;;;;;;;;5069742;28;20446;-74
2023/03/10 01:15:16;;;;;;;9.48;3.60;;;;;;;;;;5087082;28;20067;-73
2023/03/10 01:17:45;;;;;;;5.15;2.80;;;;;;;;;;5088226;28;20487;-74
2023/03/10 01:20:17;;;;;;;5.18;3.22;;;;;;;;;;5087797;28;20048;-74
2023/03/10 01:22:49;;;;;;;7.63;3.25;;;;;;;;;;5087838;28;20055;-73
2023/03/10 01:25:18;;;;;;;14.00;3.17;;;;;;;;;;5086837;28;20066;-74
2023/03/10 01:27:49;;;;;;;13.68;3.30;;;;;;;;;;5052866;28;20418;-74
2023/03/10 01:30:19;;;;;;;16.85;3.22;;;;;;;;;;5068207;28;20048;-74
2023/03/10 01:32:51;;;;;;;7.90;3.13;;;;;;;;;;5087265;28;20059;-72
2023/03/10 01:35:22;;;;;;;10.00;3.35;;;;;;;;;;5069041;28;20056;-73
2023/03/10 01:37:52;;;;;;;6.22;3.25;;;;;;;;;;5069077;28;20044;-73
2023/03/10 01:40:22;;;;;;;6.07;2.70;;;;;;;;;;5068882;28;20425;-74
2023/03/10 01:43:13;;;;;;;8.82;3.20;;;;;;;;;;5087554;28;20048;-74
2023/03/10 01:45:43;;;;;;;8.27;2.88;;;;;;;;;;5086610;28;20058;-75
2023/03/10 01:48:17;;;;;;;6.72;3.45;;;;;;;;;;5067311;28;20498;-74
2023/03/10 01:50:53;;;;;;;6.28;2.85;;;;;;;;;;5068284;28;20517;-73
2023/03/10 01:53:24;;;;;;;;;;;;;;;;;;5088231;28;20051;-74
2023/03/10 01:56:01;;;;;;;10.63;3.50;;;;;;;;;;5068507;28;19927;-74
2023/03/10 01:58:38;;;;;;;11.93;3.65;;;;;;;;;;5068502;28;20530;-74
2023/03/10 02:01:10;;;;;;;9.10;3.80;;;;;;;;;;5087268;28;20055;-73
2023/03/10 02:04:07;;;;;;;14.88;3.95;;;;;;;;;;5067759;28;20056;-73
2023/03/10 02:06:40;;;;;;;7.50;3.15;;;;;;;;;;5062614;28;20078;-74
2023/03/10 02:09:11;;;;;;;12.55;3.63;;;;;;;;;;5087317;28;20055;-74
2023/03/10 02:11:42;;;;;;;7.50;3.90;;;;;;;;;;5068798;28;20049;-74
2023/03/10 02:14:13;;;;;;;8.68;3.88;;;;;;;;;;5087084;28;20043;-74
2023/03/10 02:16:44;;;;;;;6.97;3.90;;;;;;;;;;5067519;28;20060;-73
2023/03/10 02:19:52;;;;;;;16.65;3.50;;;;;;;;;;5086055;28;20059;-74
2023/03/10 02:22:23;;;;;;;8.57;3.75;;;;;;;;;;5033125;28;20059;-73
2023/03/10 02:24:56;;;;;;;8.20;4.00;;;;;;;;;;5068711;28;20399;-73
2023/03/10 02:27:33;;;;;;;9.63;3.63;;;;;;;;;;5087048;28;20063;-73
2023/03/10 02:30:12;;;;;;;9.70;4.22;;;;;;;;;;5067957;28;20040;-73
2023/03/10 02:32:49;;;;;;;9.48;3.95;;;;;;;;;;5068370;28;20055;-73
2023/03/10 02:35:22;;;;;;;9.57;4.07;;;;;;;;;;5067704;28;20063;-74
2023/03/10 02:38:01;;;;;;;8.63;4.30;;;;;;;;;;5068204;28;20052;-73
2023/03/10 02:40:50;;;;;;;16.42;3.92;;;;;;;;;;5086209;28;20067;-74
2023/03/10 02:43:32;;;;;;;9.10;4.13;;;;;;;;;;5067827;28;20549;-73
2023/03/10 02:46:12;;;;;;;23.70;4.68;;;;;;;;;;5068710;28;20055;-74
2023/03/10 02:48:46;;;;;;;9.82;4.55;;;;;;;;;;5068317;28;20056;-73
2023/03/10 02:51:31;;;;;;;13.43;4.50;;;;;;;;;;5067336;28;20555;-73
2023/03/10 02:54:07;;;;;;;8.68;3.70;;;;;;;;;;5067865;28;20044;-73
2023/03/10 02:56:39;;;;;;;9.20;4.30;;;;;;;;;;5068220;28;20138;-73
2023/03/10 02:59:12;;;;;;;7.82;4.38;;;;;;;;;;5067378;28;20063;-74
2023/03/10 03:01:48;;;;;;;10.30;4.50;;;;;;;;;;5085880;28;20058;-74
2023/03/10 03:04:20;;;;;;;9.50;3.70;;;;;;;;;;5086949;28;20797;-74
2023/03/10 03:06:50;;;;;;;7.13;4.82;;;;;;;;;;5067761;28;20070;-76
2023/03/10 03:09:22;;;;;;;8.23;4.47;;;;;;;;;;5066998;28;20048;-73
2023/03/10 03:11:54;;;;;;;9.95;4.28;;;;;;;;;;5051899;28;20044;-73
2023/03/10 03:14:24;;;;;;;11.52;4.50;;;;;;;;;;5068551;28;20442;-73
2023/03/10 03:16:54;;;;;;;9.00;4.13;;;;;;;;;;5071990;28;20056;-75
2023/03/10 03:19:25;;;;;;;10.73;4.15;;;;;;;;;;5071114;28;20511;-74
2023/03/10 03:21:58;;;;;;;8.18;4.03;;;;;;;;;;5071066;28;20541;-74
2023/03/10 03:24:30;;;;;;;8.48;3.85;;;;;;;;;;5071699;28;20056;-74
2023/03/10 03:27:04;;;;;;;8.13;4.53;;;;;;;;;;5070985;28;20059;-72
2023/03/10 03:29:35;;;;;;;12.07;4.53;;;;;;;;;;5088484;28;20067;-71
2023/03/10 03:32:07;;;;;;;11.65;4.00;;;;;;;;;;5071679;28;20048;-72
2023/03/10 03:34:38;;;;;;;11.98;4.15;;;;;;;;;;5071267;28;20071;-73
2023/03/10 03:37:08;;;;;;;5.43;3.92;;;;;;;;;;5071429;28;20498;-73
2023/03/10 03:39:40;;;;;;;6.55;3.78;;;;;;;;;;5071191;28;20048;-73
2023/03/10 03:42:12;;;;;;;5.82;3.90;;;;;;;;;;5071776;28;20410;-72
2023/03/10 03:44:48;;;;;;;9.63;4.03;;;;;;;;;;5104654;28;20056;-74
2023/03/10 03:47:18;;;;;;;7.30;3.58;;;;;;;;;;5070980;28;20055;-73
2023/03/10 03:49:49;;;;;;;6.72;3.45;;;;;;;;;;5070787;28;20414;-74
2023/03/10 03:52:19;;;;;;;9.55;4.00;;;;;;;;;;5071497;28;20044;-72
2023/03/10 03:54:49;;;;;;;7.68;3.67;;;;;;;;;;5071360;28;20051;-73
2023/03/10 03:57:19;;;;;;;9.30;3.80;;;;;;;;;;5070924;28;20126;-72
2023/03/10 03:59:51;;;;;;;6.93;3.65;;;;;;;;;;5071169;28;20071;-73
2023/03/10 04:02:21;;;;;;;10.13;3.88;;;;;;;;;;5069621;28;20414;-73
2023/03/10 04:04:54;;;;;;;9.75;3.63;;;;;;;;;;5070694;28;20059;-73
2023/03/10 04:07:24;;;;;;;8.07;4.07;;;;;;;;;;5070195;28;20052;-73
2023/03/10 04:09:54;;;;;;;8.82;3.80;;;;;;;;;;5103926;28;20391;-72
2023/03/10 04:12:26;;;;;;;9.73;4.18;;;;;;;;;;5069989;28;20138;-74
2023/03/10 04:15:00;;;;;;;9.50;4.00;;;;;;;;;;5070513;28;20052;-73
2023/03/10 04:17:30;;;;;;;8.63;4.10;;;;;;;;;;5089357;28;20513;-74
2023/03/10 04:20:00;;;;;;;8.23;4.10;;;;;;;;;;5053958;28;20063;-74
2023/03/10 04:22:41;;;;;;;10.77;3.65;;;;;;;;;;5070400;28;20056;-73
2023/03/10 04:25:13;;;;;;;6.13;3.72;;;;;;;;;;5069789;28;20051;-72
2023/03/10 04:27:44;;;;;;;6.72;3.35;;;;;;;;;;5069790;28;20052;-74
2023/03/10 04:30:14;;;;;;;7.18;4.50;;;;;;;;;;5070925;28;20056;-74
2023/03/10 04:32:50;;;;;;;7.90;3.40;;;;;;;;;;5070442;28;20545;-73
2023/03/10 04:35:23;;;;;;;7.40;3.42;;;;;;;;;;5070444;28;20411;-73
2023/03/10 04:37:54;;;;;;;9.30;3.83;;;;;;;;;;5070763;28;20051;-73
2023/03/10 04:40:25;;;;;;;10.40;4.22;;;;;;;;;;5070510;28;20044;-73
2023/03/10 04:42:56;;;;;;;12.30;4.38;;;;;;;;;;5070107;28;20414;-73
2023/03/10 04:45:27;;;;;;;5.47;3.97;;;;;;;;;;5069411;28;20055;-74
2023/03/10 04:47:57;;;;;;;9.40;3.45;;;;;;;;;;5070160;28;20423;-74
2023/03/10 04:50:27;;;;;;;9.55;4.13;;;;;;;;;;5070470;28;20048;-73
2023/03/10 04:52:58;;;;;;;9.50;3.95;;;;;;;;;;5070567;28;20048;-73
2023/03/10 04:55:31;;;;;;;11.95;4.38;;;;;;;;;;5070282;28;20047;-73
2023/03/10 04:58:04;;;;;;;7.82;4.72;;;;;;;;;;5070453;28;20846;-74
2023/03/10 05:00:37;;;;;;;9.82;3.88;;;;;;;;;;5069943;28;20059;-73
2023/03/10 05:03:23;;;;;;;7.45;4.45;;;;;;;;;;5069973;28;20063;-73
2023/03/10 05:05:54;;;;;;;8.40;4.38;;;;;;;;;;5069736;28;20048;-74
2023/03/10 05:08:25;;;;;;;9.02;4.80;;;;;;;;;;5068838;28;20529;-73
2023/03/10 05:10:57;;;;;;;10.48;3.53;;;;;;;;;;5087093;28;20056;-73
2023/03/10 05:13:28;;;;;;;11.77;4.63;;;;;;;;;;5069496;28;20052;-73
2023/03/10 05:16:01;;;;;;;8.65;4.78;;;;;;;;;;5070189;28;20048;-74
2023/03/10 05:18:31;;;;;;;12.57;4.72;;;;;;;;;;5069386;28;20052;-73
2023/03/10 05:21:01;;;;;;;11.43;4.35;;;;;;;;;;5069838;28;20044;-74
2023/03/10 05:23:32;;;;;;;8.00;3.40;;;;;;;;;;5069436;28;20055;-72
2023/03/10 05:26:06;;;;;;;7.90;4.38;;;;;;;;;;5069139;28;20067;-73
2023/03/10 05:28:36;;;;;;;5.18;3.72;;;;;;;;;;5069596;28;20052;-73
2023/03/10 05:31:13;;;;;;;8.85;4.55;;;;;;;;;;5070060;28;20044;-73
2023/03/10 05:33:46;;;;;;;11.60;4.18;;;;;;;;;;5068854;28;20063;-73
2023/03/10 05:36:18;;;;;;;7.10;4.10;;;;;;;;;;5087943;28;20052;-73
2023/03/10 05:38:50;;;;;;;11.98;4.15;;;;;;;;;;5069558;28;20052;-73
2023/03/10 05:41:20;;;;;;;10.23;3.88;;;;;;;;;;5068507;28;20055;-73
2023/03/10 05:43:55;;;;;;;7.60;4.18;;;;;;;;;;5068692;28;20056;-73
2023/03/10 05:46:27;;;;;;;11.15;3.63;;;;;;;;;;5068498;28;20048;-73
2023/03/10 05:48:59;;;;;;;10.50;3.90;;;;;;;;;;5087421;28;20044;-73
2023/03/10 05:51:30;;;;;;;9.80;3.55;;;;;;;;;;5068897;28;20549;-73
2023/03/10 05:54:05;;;;;;;7.72;3.92;;;;;;;;;;5069229;28;20043;-73
2023/03/10 05:56:38;;;;;;;16.55;4.30;;;;;;;;;;5068991;28;20048;-73
2023/03/10 05:59:08;;;;;;;11.57;3.38;;;;;;;;;;5069200;28;20064;-74
2023/03/10 06:01:38;;;;;;;8.63;4.13;;;;;;;;;;5069534;28;20070;-74
2023/03/10 06:04:09;;;;;;;7.38;4.20;;;;;;;;;;5087193;28;20044;-74
2023/03/10 06:06:39;;;;;;;8.95;3.97;;;;;;;;;;5086827;28;20056;-74
2023/03/10 06:09:09;;;;;;;11.57;4.00;;;;;;;;;;5086761;28;20063;-73
2023/03/10 06:11:39;;;;;;;14.65;4.45;;;;;;;;;;5087552;28;20044;-72
2023/03/10 06:14:11;;;;;;;13.82;3.95;;;;;;;;;;5087646;28;20052;-73
2023/03/10 06:16:43;;;;;;;10.48;3.70;;;;;;;;;;5087461;28;20040;-73
2023/03/10 06:19:15;;;;;;;10.23;4.70;;;;;;;;;;5087118;28;20044;-73
2023/03/10 06:21:44;;;;;;;11.65;4.78;;;;;;;;;;5086833;28;20869;-73
2023/03/10 06:24:15;;;;;;;10.48;4.00;;;;;;;;;;5069416;28;20051;-73
2023/03/10 06:26:46;;;;;;;14.57;4.78;;;;;;;;;;5069601;28;20056;-72
2023/03/10 06:29:16;;;;;;;8.95;3.88;;;;;;;;;;5087366;28;20059;-73
2023/03/10 06:31:47;;;;;;;15.00;4.00;;;;;;;;;;5087067;28;20051;-74
2023/03/10 06:34:17;;;;;;;9.68;3.33;;;;;;;;;;5101710;28;20048;-73
2023/03/10 06:36:49;;;;;;;10.23;4.13;;;;;;;;;;5086637;28;20055;-73
2023/03/10 06:39:20;;;;;;;8.68;3.42;;;;;;;;;;5086844;28;20044;-72
2023/03/10 06:41:50;;;;;;;7.65;3.75;;;;;;;;;;5086420;28;20044;-73
2023/03/10 06:44:20;;;;;;;8.25;2.65;;;;;;;;;;5086568;28;20380;-73
2023/03/10 06:46:50;;;;;;;8.73;3.78;;;;;;;;;;5086769;28;20490;-73
2023/03/10 06:49:22;;;;;;;9.45;3.58;;;;;;;;;;5086620;28;20036;-73
2023/03/10 06:51:53;;;;;;;8.50;3.33;;;;;;;;;;5086621;28;20063;-73
2023/03/10 06:54:23;;;;;;;9.55;3.72;;;;;;;;;;5068199;28;20052;-73
2023/03/10 06:56:53;;;;;;;15.18;3.40;;;;;;;;;;5086678;28;20059;-74
2023/03/10 06:59:24;;;;;;;8.05;3.92;;;;;;;;;;5086962;28;20044;-73
2023/03/10 07:01:55;;;;;;;5.72;3.10;;;;;;;;;;5086252;28;20542;-74
2023/03/10 07:04:25;;;;;;;6.53;3.20;;;;;;;;;;5068456;28;20083;-73
2023/03/10 07:06:55;;;;;;;8.82;4.15;;;;;;;;;;5086255;28;20079;-74
2023/03/10 07:09:27;;;;;;;7.38;3.58;;;;;;;;;;5086551;28;20063;-73
2023/03/10 07:11:57;;;;;;;5.80;3.92;;;;;;;;;;5086546;28;20491;-73
2023/03/10 07:14:27;;;;;;;6.47;3.22;;;;;;;;;;5086481;28;20048;-73
2023/03/10 07:16:57;;;;;;;5.90;4.15;;;;;;;;;;5086781;28;20044;-73
2023/03/10 07:19:27;;;;;;;4.38;3.60;;;;;;;;;;5086765;28;20059;-73
2023/03/10 07:21:59;;;;;;;8.57;3.08;;;;;;;;;;5086182;28;20051;-73
2023/03/10 07:24:29;;;;;;;10.15;4.10;;;;;;;;;;5086360;28;20039;-73
2023/03/10 07:27:00;;;;;;;4.65;3.40;;;;;;;;;;5086594;28;20044;-74
2023/03/10 07:29:30;;;;;;;4.20;3.20;;;;;;;;;;5086359;28;20044;-73
2023/03/10 07:32:00;;;;;;;4.55;3.53;;;;;;;;;;5086232;28;20067;-73
2023/03/10 07:34:32;;;;;;;5.60;3.38;;;;;;;;;;5086481;28;20402;-74
2023/03/10 07:37:02;;;;;;;10.80;4.15;;;;;;;;;;5086558;28;20072;-74
2023/03/10 07:39:32;;;;;;;10.88;3.60;;;;;;;;;;5086215;28;20058;-73
2023/03/10 07:42:03;;;;;;;10.52;4.30;;;;;;;;;;5086495;28;20438;-73
2023/03/10 07:44:34;;;;;;;7.50;3.40;;;;;;;;;;5086454;28;20384;-73
2023/03/10 07:47:06;;;;;;;11.35;3.88;;;;;;;;;;5086118;28;20055;-73
2023/03/10 07:49:36;;;;;;;6.70;3.25;;;;;;;;;;5086034;28;20075;-73
2023/03/10 07:52:07;;;;;;;12.43;3.28;;;;;;;;;;5085971;28;20426;-72
2023/03/10 07:54:37;;;;;;;9.15;3.13;;;;;;;;;;5084424;28;20052;-74
2023/03/10 07:57:08;;;;;;;7.32;3.55;;;;;;;;;;5085952;28;20056;-73
2023/03/10 07:59:39;;;;;;;14.82;4.40;;;;;;;;;;5086045;28;20052;-73
2023/03/10 08:02:12;;;;;;;5.53;3.17;;;;;;;;;;5088714;28;20530;-73
2023/03/10 08:04:42;;;;;;;8.68;3.97;;;;;;;;;;5071323;28;20048;-73
2023/03/10 08:07:12;;;;;;;6.10;4.03;;;;;;;;;;5072270;28;20055;-74
2023/03/10 08:09:49;;;;;;;10.77;3.88;;;;;;;;;;5071137;28;20055;-73
2023/03/10 08:12:22;;;;;;;6.70;3.10;;;;;;;;;;5089320;28;20573;-73
2023/03/10 08:14:53;;;;;;;8.00;3.30;;;;;;;;;;5071306;28;20044;-73
2023/03/10 08:17:29;;;;;;;10.95;4.22;;;;;;;;;;5088904;28;20514;-74
2023/03/10 08:20:00;;;;;;;4.68;3.67;;;;;;;;;;5089453;28;20055;-74
2023/03/10 08:22:30;;;;;;;13.48;3.75;;;;;;;;;;5089409;28;20385;-74
2023/03/10 08:25:01;;;;;;;14.70;3.75;;;;;;;;;;5089371;28;20414;-73
2023/03/10 08:27:32;;;;;;;6.97;3.22;;;;;;;;;;5089218;28;20044;-73
2023/03/10 08:30:02;;;;;;;9.63;3.70;;;;;;;;;;5089719;28;20067;-73
2023/03/10 08:32:32;;;;;;;4.90;3.90;;;;;;;;;;5089464;28;20505;-72
2023/03/10 08:35:05;;;;;;;8.95;3.80;;;;;;;;;;5088854;28;20059;-73
2023/03/10 08:37:35;;;;;;;9.85;3.53;;;;;;;;;;5089141;28;20090;-73
2023/03/10 08:40:06;;;;;;;5.72;3.60;;;;;;;;;;5088854;28;20529;-73
2023/03/10 08:42:38;;;;;;;11.57;3.95;;;;;;;;;;5088554;28;20510;-73
2023/03/10 08:45:11;;;;;;;8.05;5.35;;;;;;;;;;5088491;28;20051;-74
2023/03/10 08:47:41;;;;;;;6.68;3.65;;;;;;;;;;5087787;28;20059;-73
2023/03/10 08:50:12;;;;;;;11.60;4.05;;;;;;;;;;5088680;28;20055;-74
2023/03/10 08:52:43;;;;;;;7.38;3.80;;;;;;;;;;5089036;28;20080;-73
2023/03/10 08:55:14;;;;;;;13.13;3.42;;;;;;;;;;5088863;28;20048;-73
2023/03/10 08:57:44;;;;;;;6.20;3.72;;;;;;;;;;5089140;28;20589;-72
2023/03/10 09:00:14;;;;;;;5.55;3.70;;;;;;;;;;5088315;28;20040;-73
2023/03/10 09:02:45;;;;;;;6.47;3.33;;;;;;;;;;5088707;28;20048;-71
2023/03/10 09:05:17;;;;;;;11.13;2.92;;;;;;;;;;5088823;28;20439;-72
2023/03/10 09:07:49;;;;;;;7.85;3.25;;;;;;;;;;5071332;28;20048;-71
2023/03/10 09:10:20;;;;;;;8.18;3.80;;;;;;;;;;5088372;28;20051;-72
2023/03/10 09:12:51;;;;;;;12.50;4.03;;;;;;;;;;5088311;28;20051;-71
2023/03/10 09:15:41;;;;;;;9.35;3.35;;;;;;;;;;5088329;28;20052;-72
2023/03/10 09:18:14;;;;;;;10.57;3.30;;;;;;;;;;5088559;28;20044;-73
2023/03/10 09:20:45;;;;;;;7.22;3.47;;;;;;;;;;5088564;28;20044;-73
2023/03/10 09:23:16;;;;;;;5.50;3.33;;;;;;;;;;5070972;28;20075;-72
2023/03/10 09:25:47;;;;;;;7.43;3.40;;;;;;;;;;5087946;28;20048;-73
2023/03/10 09:28:17;;;;;;;8.27;2.70;;;;;;;;;;5087938;28;20402;-72
2023/03/10 09:30:49;;;;;;;6.68;3.45;;;;;;;;;;5087944;28;20059;-72
2023/03/10 09:33:22;;;;;;;6.95;3.78;;;;;;;;;;5087328;28;20044;-72
2023/03/10 09:35:56;;;;;;;8.82;3.85;;;;;;;;;;5087820;28;20047;-73
2023/03/10 09:38:35;;;;;;;6.13;3.70;;;;;;;;;;5088154;28;20048;-75
2023/03/10 09:41:23;;;;;;;11.07;3.25;;;;;;;;;;5087485;28;20040;-73
2023/03/10 09:44:29;;;;;;;18.05;8.63;;;;;;;;;;5087278;28;20047;-73
2023/03/10 09:47:03;;;;;;;8.02;4.00;;;;;;;;;;5087198;28;20040;-74
2023/03/10 09:49:43;;;;;;;4.20;3.40;;;;;;;;;;5088066;28;20503;-73
2023/03/10 09:52:27;;;;;;;10.90;4.05;;;;;;;;;;5087003;28;20766;-73
2023/03/10 09:55:05;;;;;;;10.93;4.35;;;;;;;;;;5087192;28;20062;-75
2023/03/10 09:57:37;;;;;;;8.95;4.60;;;;;;;;;;5087763;28;20044;-73
2023/03/10 10:00:32;;;;;;;15.10;5.15;;;;;;;;;;5087216;28;20544;-73
2023/03/10 10:03:18;;;;;;;9.43;5.40;;;;;;;;;;5087572;28;20396;-74
2023/03/10 10:05:54;;;;;;;22.13;7.30;;;;;;;;;;5068606;28;20072;-71
2023/03/10 10:08:37;;;;;;;14.23;4.75;;;;;;;;;;5087596;28;20494;-72
2023/03/10 10:11:14;;;;;;;13.25;4.20;;;;;;;;;;5070042;28;20051;-72
2023/03/10 10:13:44;;;;;;;16.55;5.28;;;;;;;;;;5087652;28;20051;-74
2023/03/10 10:16:55;;;;;;;7.68;4.70;;;;;;;;;;5087555;28;20055;-73
2023/03/10 10:19:28;;;;;;;8.07;4.85;;;;;;;;;;5069049;28;20059;-72
2023/03/10 10:22:05;;;;;;;8.30;4.43;;;;;;;;;;5086844;28;20047;-73
2023/03/10 10:24:36;;;;;;;12.57;4.50;;;;;;;;;;5086334;28;20513;-73
2023/03/10 10:27:07;;;;;;;6.50;4.30;;;;;;;;;;5086824;28;20048;-73
2023/03/10 10:29:41;;;;;;;14.85;4.72;;;;;;;;;;5086522;28;20051;-73
2023/03/10 10:32:14;;;;;;;7.20;4.60;;;;;;;;;;5086530;28;20044;-73
2023/03/10 10:34:46;;;;;;;8.07;4.30;;;;;;;;;;5086927;28;20040;-73
2023/03/10 10:37:29;;;;;;;5.50;3.67;;;;;;;;;;5086151;28;20036;-73
2023/03/10 10:40:23;;;;;;;6.32;4.70;;;;;;;;;;5087054;28;20051;-74
2023/03/10 10:42:59;;;;;;;10.85;4.40;;;;;;;;;;5087167;28;20490;-73
2023/03/10 10:45:36;;;;;;;21.33;5.40;;;;;;;;;;5086298;28;20036;-73
2023/03/10 10:48:36;;;;;;;19.27;4.78;;;;;;;;;;5086384;28;20048;-74
2023/03/10 10:51:28;;;;;;;48.13;5.60;;;;;;;;;;5086552;28;20059;-74
2023/03/10 10:54:20;;;;;;;13.75;3.53;;;;;;;;;;5085315;28;20060;-73
2023/03/10 10:56:54;;;;;;;15.70;3.80;;;;;;;;;;5085021;28;20479;-73
2023/03/10 10:59:34;;;;;;;8.45;3.00;;;;;;;;;;5086699;28;20507;-74
2023/03/10 11:02:34;;;;;;;25.88;3.53;;;;;;;;;;5086702;28;20048;-74
2023/03/10 11:05:12;;;;;;;12.68;2.30;;;;;;;;;;5086448;28;20051;-73
2023/03/10 11:07:46;;;;;;;23.45;2.90;;;;;;;;;;5069365;28;20048;-73
2023/03/10 11:10:26;;;;;;;2.35;1.63;;;;;;;;;;5086521;28;20048;-75
2023/03/10 11:13:23;;;;;;;15.88;1.83;;;;;;;;;;5086862;28;20534;-74
2023/03/10 11:15:59;;;;;;;4.57;1.73;;;;;;;;;;5086105;28;20052;-74
2023/03/10 11:18:38;;;;;;;8.82;1.90;;;;;;;;;;5086043;28;20601;-73
2023/03/10 11:21:25;;;;;;;10.40;2.17;;;;;;;;;;5068305;28;20518;-74
2023/03/10 11:24:20;;;;;;;3.40;1.63;;;;;;;;;;5086076;28;20071;-74
2023/03/10 11:27:25;;;;;;;5.22;1.70;;;;;;;;;;5086211;28;20048;-74
2023/03/10 11:30:19;;;;;;;4.15;1.67;;;;;;;;;;5086340;28;20036;-75
2023/03/10 11:32:49;;;;;;;;;;;;;;;;;;5085819;28;20526;-75
2023/03/10 11:35:35;;;;;;;7.18;2.35;;;;;;;;;;5068899;28;19920;-74
2023/03/10 11:38:36;;;;;;;27.20;3.40;;;;;;;;;;5070644;28;20076;-75
2023/03/10 11:41:10;;;;;;;5.22;2.30;;;;;;;;;;5089932;28;20059;-74
2023/03/10 11:44:02;;;;;;;4.32;2.47;;;;;;;;;;5089785;28;20509;-74
2023/03/10 11:47:09;;;;;;;5.65;1.90;;;;;;;;;;5090253;28;20378;-75
2023/03/10 11:49:44;;;;;;;3.75;1.80;;;;;;;;;;5056043;28;20068;-74
2023/03/10 11:52:20;;;;;;;2.97;2.10;;;;;;;;;;5089740;28;20111;-74
2023/03/10 11:55:00;;;;;;;6.82;2.10;;;;;;;;;;5090016;28;20529;-76
2023/03/10 11:57:44;;;;;;;5.05;1.90;;;;;;;;;;5090318;28;20048;-76
2023/03/10 12:00:25;;;;;;;7.18;2.10;;;;;;;;;;5089713;28;20044;-77
2023/03/10 12:03:03;;;;;;;7.65;3.90;;;;;;;;;;5089529;28;20048;-74
2023/03/10 12:05:50;;;;;;;2.80;1.60;;;;;;;;;;5089120;28;20052;-74
2023/03/10 12:08:23;;;;;;;2.53;1.90;;;;;;;;;;5070158;28;20060;-74
2023/03/10 12:10:55;;;;;;;5.80;1.77;;;;;;;;;;5089735;28;20048;-74
2023/03/10 12:13:32;;;;;;;12.57;6.90;;;;;;;;;;5089609;28;20048;-72
2023/03/10 12:16:05;;;;;;;6.88;2.63;;;;;;;;;;5089600;28;20421;-74
2023/03/10 12:18:36;;;;;;;7.13;2.00;;;;;;;;;;5090289;28;20047;-74
2023/03/10 12:21:22;;;;;;;14.57;4.68;;;;;;;;;;5089097;28;20052;-75
2023/03/10 12:23:55;;;;;;;9.65;2.45;;;;;;;;;;5089276;28;20051;-75
2023/03/10 12:26:37;;;;;;;3.83;2.08;;;;;;;;;;5089215;28;20044;-74
2023/03/10 12:29:21;;;;;;;6.10;2.35;;;;;;;;;;5088705;28;20419;-75
2023/03/10 12:31:54;;;;;;;14.63;2.85;;;;;;;;;;5089100;28;20790;-75
2023/03/10 12:34:31;;;;;;;8.50;2.78;;;;;;;;;;5088992;28;20040;-75
2023/03/10 12:37:11;;;;;;;5.00;2.38;;;;;;;;;;5089015;28;20482;-76
2023/03/10 12:39:43;;;;;;;5.68;1.92;;;;;;;;;;5088895;28;20059;-74
2023/03/10 12:42:37;;;;;;;3.70;2.15;;;;;;;;;;5070336;28;20040;-73
2023/03/10 12:45:10;;;;;;;4.32;1.80;;;;;;;;;;5088655;28;20048;-72
2023/03/10 12:48:12;;;;;;;3.85;1.80;;;;;;;;;;5088271;28;20040;-72
2023/03/10 12:50:58;;;;;;;5.65;1.92;;;;;;;;;;5088517;28;20048;-73
2023/03/10 12:53:37;;;;;;;4.15;1.83;;;;;;;;;;5088425;28;20032;-73
2023/03/10 12:56:13;;;;;;;5.13;2.55;;;;;;;;;;5088333;28;20055;-72
2023/03/10 12:58:51;;;;;;;11.48;2.70;;;;;;;;;;5088575;28;20075;-72
2023/03/10 13:01:27;;;;;;;4.10;1.92;;;;;;;;;;5088832;28;20044;-72
2023/03/10 13:03:59;;;;;;;8.52;2.00;;;;;;;;;;5088768;28;20055;-73
2023/03/10 13:06:37;;;;;;;6.00;1.88;;;;;;;;;;5070265;28;20044;-73
2023/03/10 13:09:28;;;;;;;15.68;2.25;;;;;;;;;;5088520;28;20707;-74
2023/03/10 13:12:24;;;;;;;3.33;1.50;;;;;;;;;;5088066;28;20048;-73
2023/03/10 13:14:59;;;;;;;37.58;3.15;;;;;;;;;;5088562;28;20048;-73
2023/03/10 13:17:31;;;;;;;13.13;2.20;;;;;;;;;;5088483;28;20040;-75
2023/03/10 13:20:16;;;;;;;7.10;1.58;;;;;;;;;;5087963;28;20040;-74
2023/03/10 13:22:55;;;;;;;5.05;1.48;;;;;;;;;;5088261;28;20081;-73
2023/03/10 13:25:27;;;;;;;1.70;1.52;;;;;;;;;;5088355;28;20055;-72
2023/03/10 13:28:09;;;;;;;2.50;1.50;;;;;;;;;;5088853;28;20048;-73
2023/03/10 13:30:39;;;;;;;3.83;1.30;;;;;;;;;;5087466;28;20050;-73
2023/03/10 13:33:23;;;;;;;2.15;1.48;;;;;;;;;;5087777;28;20059;-72
2023/03/10 13:35:54;;;;;;;2.45;1.40;;;;;;;;;;5088158;28;20513;-74
2023/03/10 13:38:24;;;;;;;2.80;1.45;;;;;;;;;;5087913;28;20609;-72
2023/03/10 13:41:01;;;;;;;3.80;1.60;;;;;;;;;;5087683;28;20411;-73
2023/03/10 13:43:48;;;;;;;1.70;1.60;;;;;;;;;;5087789;28;20502;-76
2023/03/10 13:46:24;;;;;;;2.50;1.50;;;;;;;;;;5087288;28;20059;-73
2023/03/10 13:49:05;;;;;;;1.98;1.50;;;;;;;;;;5087380;28;20040;-73
2023/03/10 13:51:37;;;;;;;2.47;1.30;;;;;;;;;;5087666;28;20048;-72
2023/03/10 13:54:31;;;;;;;2.67;2.35;;;;;;;;;;5087949;28;20044;-73
2023/03/10 13:57:28;;;;;;;4.35;1.50;;;;;;;;;;5086715;28;20044;-73
2023/03/10 14:00:01;;;;;;;6.10;1.55;;;;;;;;;;5086423;28;20059;-74
2023/03/10 14:02:40;;;;;;;4.10;1.30;;;;;;;;;;5092886;28;20055;-76
2023/03/10 14:05:44;;;;;;;3.33;1.40;;;;;;;;;;5087038;28;20052;-74
2023/03/10 14:08:27;;;;;;;3.72;1.23;;;;;;;;;;5068315;28;20059;-76
2023/03/10 14:11:24;;;;;;;4.82;1.58;;;;;;;;;;5087088;28;20498;-73
2023/03/10 14:13:54;;;;;;;2.75;1.20;;;;;;;;;;5086752;28;20058;-73
2023/03/10 14:16:52;;;;;;;2.63;1.45;;;;;;;;;;5086310;28;20047;-73
2023/03/10 14:19:42;;;;;;;3.45;1.25;;;;;;;;;;5087939;28;20067;-74
2023/03/10 14:22:43;;;;;;;1.98;1.05;;;;;;;;;;5084119;28;20049;-73
2023/03/10 14:25:21;;;;;;;2.20;1.20;;;;;;;;;;5071372;28;20048;-73
2023/03/10 14:28:07;;;;;;;5.88;1.42;;;;;;;;;;5066766;28;20055;-73
2023/03/10 14:30:42;;;;;;;1.67;1.20;;;;;;;;;;5066453;28;20048;-76
2023/03/10 14:33:15;;;;;;;1.40;1.27;;;;;;;;;;5066498;28;20044;-74
2023/03/10 14:35:46;;;;;;;5.20;1.42;;;;;;;;;;5066961;28;20100;-74
2023/03/10 14:38:16;;;;;;;1.20;1.10;;;;;;;;;;5066419;28;20047;-73
2023/03/10 14:40:49;;;;;;;2.17;1.10;;;;;;;;;;5066537;28;20040;-74
2023/03/10 14:43:24;;;;;;;3.60;1.20;;;;;;;;;;5048263;28;20052;-78
2023/03/10 14:45:57;;;;;;;1.10;1.00;;;;;;;;;;5066877;28;20407;-76
2023/03/10 14:48:32;;;;;;;3.60;1.30;;;;;;;;;;5066371;28;20056;-75
2023/03/10 14:51:06;;;;;;;3.15;1.20;;;;;;;;;;5066196;28;20064;-75
2023/03/10 14:53:36;;;;;;;3.83;1.77;;;;;;;;;;5066657;28;20828;-75
2023/03/10 14:56:10;;;;;;;3.67;1.52;;;;;;;;;;5066231;28;20472;-74
2023/03/10 14:58:47;;;;;;;4.55;1.40;;;;;;;;;;5066439;28;20040;-75
2023/03/10 15:01:19;;;;;;;3.85;1.10;;;;;;;;;;5066713;28;20430;-74
2023/03/10 15:03:51;;;;;;;5.25;1.33;;;;;;;;;;5066125;28;20049;-74
2023/03/10 15:06:22;;;;;;;4.53;1.23;;;;;;;;;;5067068;28;20495;-75
2023/03/10 15:08:51;;;;;;;2.42;1.10;;;;;;;;;;5066941;28;20057;-75
2023/03/10 15:11:22;;;;;;;2.00;1.20;;;;;;;;;;5069739;28;20053;-75
2023/03/10 15:14:18;;;;;;;2.05;1.13;;;;;;;;;;5070307;28;20055;-74
2023/03/10 15:16:49;;;;;;;6.50;1.30;;;;;;;;;;5070167;28;20041;-75
2023/03/10 15:19:25;;;;;;;14.48;1.52;;;;;;;;;;5069979;28;20036;-77
2023/03/10 15:21:54;;;;;;;;;;;;;;;;;;5070859;28;20403;-78
2023/03/10 15:24:25;;;;;;;14.10;1.58;;;;;;;;;;5070432;28;19947;-74
2023/03/10 15:26:55;;;;;;;11.10;1.45;;;;;;;;;;5069951;28;20047;-77
2023/03/10 15:29:26;;;;;;;5.30;1.02;;;;;;;;;;5070293;28;20047;-77